Time;durP1;ratioP1;P1;durP2;ratioP2;P2;SDS_P1;SDS_P2;PMS_P1;PMS_P2;Temp;Humidity;BMP_temperature;BMP_pressure;BME280_temperature;BME280_humidity;BME280_pressure;Samples;Min_cycle;Max_cycle;Signal;HPM_P1;HPM_P2
2022/09/17 00:00:20;;;;;;;7.55;5.90;;;9.70;99.90;;;;;;5031229;28;20040;-76
2022/09/17 00:02:54;;;;;;;9.27;5.40;;;9.70;99.90;;;;;;5031420;28;20021;-77
2022/09/17 00:05:23;;;;;;;7.77;5.03;;;9.70;99.90;;;;;;5030302;28;20496;-77
2022/09/17 00:07:50;;;;;;;9.65;5.05;;;9.70;99.90;;;;;;5030785;28;20025;-77
2022/09/17 00:10:17;;;;;;;9.50;4.77;;;9.70;99.90;;;;;;5031121;28;20032;-76
2022/09/17 00:12:43;;;;;;;10.35;5.15;;;9.70;99.90;;;;;;5031018;28;20160;-76
2022/09/17 00:15:09;;;;;;;7.13;4.38;;;9.70;99.90;;;;;;5030585;28;20065;-76
2022/09/17 00:17:34;;;;;;;7.10;3.70;;;9.70;99.90;;;;;;5030377;28;20466;-76
2022/09/17 00:20:00;;;;;;;8.77;4.50;;;9.80;99.90;;;;;;5029932;28;20021;-76
2022/09/17 00:22:26;;;;;;;6.00;3.67;;;9.70;99.90;;;;;;5030055;28;20079;-76
2022/09/17 00:24:51;;;;;;;6.27;3.67;;;9.70;99.90;;;;;;5030314;28;20500;-76
2022/09/17 00:27:17;;;;;;;6.57;3.77;;;9.80;99.90;;;;;;5030514;28;20338;-76
2022/09/17 00:29:42;;;;;;;5.83;3.73;;;9.70;99.90;;;;;;5029807;28;20033;-77
2022/09/17 00:32:08;;;;;;;5.33;3.70;;;9.80;99.90;;;;;;5030205;28;20486;-77
2022/09/17 00:34:34;;;;;;;6.77;3.13;;;9.70;99.90;;;;;;5030208;28;20025;-77
2022/09/17 00:36:59;;;;;;;5.50;3.43;;;9.70;99.90;;;;;;5029874;28;20535;-76
2022/09/17 00:39:25;;;;;;;5.53;2.87;;;9.70;99.90;;;;;;5030260;28;20021;-77
2022/09/17 00:41:50;;;;;;;6.90;2.90;;;9.70;99.90;;;;;;5029430;28;20522;-77
2022/09/17 00:44:35;;;;;;;7.40;3.30;;;9.70;99.90;;;;;;5029924;28;20025;-77
2022/09/17 00:47:00;;;;;;;6.47;3.00;;;9.70;99.90;;;;;;5029231;28;20505;-77
2022/09/17 00:49:29;;;;;;;4.20;2.70;;;9.70;99.90;;;;;;5029103;28;20042;-77
2022/09/17 00:52:03;;;;;;;7.53;3.77;;;9.70;99.90;;;;;;5029058;28;20061;-77
2022/09/17 00:54:29;;;;;;;6.27;3.43;;;9.70;99.90;;;;;;5029473;28;20470;-77
2022/09/17 00:56:56;;;;;;;5.80;2.97;;;9.70;99.90;;;;;;5028895;28;20073;-77
2022/09/17 00:59:23;;;;;;;5.82;2.85;;;9.70;99.90;;;;;;5029522;28;20108;-77
2022/09/17 01:01:49;;;;;;;4.60;3.33;;;9.70;99.90;;;;;;5029285;28;20021;-77
2022/09/17 01:04:21;;;;;;;6.00;2.90;;;9.70;99.90;;;;;;5029202;28;20025;-77
2022/09/17 01:07:08;;;;;;;4.93;3.00;;;9.70;99.90;;;;;;5029147;28;20037;-77
2022/09/17 01:09:47;;;;;;;4.87;2.70;;;9.70;99.90;;;;;;5028822;28;20498;-77
2022/09/17 01:12:48;;;;;;;5.63;3.13;;;9.80;99.90;;;;;;5027383;28;20030;-77
2022/09/17 01:15:23;;;;;;;5.97;2.90;;;9.70;99.90;;;;;;5029000;28;20116;-77
2022/09/17 01:18:10;;;;;;;5.97;2.80;;;9.70;99.90;;;;;;5028360;28;20104;-77
2022/09/17 01:20:54;;;;;;;4.93;3.13;;;9.70;99.90;;;;;;5028696;28;20044;-77
2022/09/17 01:23:38;;;;;;;5.03;3.03;;;9.60;99.90;;;;;;5028872;28;20025;-77
2022/09/17 01:26:28;;;;;;;5.70;2.97;;;9.60;99.90;;;;;;5029030;28;20045;-77
2022/09/17 01:29:29;;;;;;;5.87;2.90;;;9.70;99.90;;;;;;5030079;28;20132;-77
2022/09/17 01:32:00;;;;;;;4.57;3.00;;;9.70;99.90;;;;;;5028891;28;20025;-77
2022/09/17 01:35:05;;;;;;;7.20;2.63;;;9.70;99.90;;;;;;5028392;28;20037;-77
2022/09/17 01:37:59;;;;;;;6.97;3.10;;;9.60;99.90;;;;;;5032456;28;20030;-77
2022/09/17 01:40:42;;;;;;;4.73;2.93;;;9.60;99.90;;;;;;5033122;28;20080;-77
2022/09/17 01:43:20;;;;;;;6.37;2.87;;;9.70;99.90;;;;;;5032904;28;20032;-77
2022/09/17 01:45:51;;;;;;;5.67;3.00;;;9.70;99.90;;;;;;5032676;28;20080;-77
2022/09/17 01:48:18;;;;;;;4.13;2.43;;;9.70;99.90;;;;;;5032278;28;20033;-77
2022/09/17 01:50:52;;;;;;;5.53;2.73;;;9.70;99.90;;;;;;5031427;28;20137;-77
2022/09/17 01:53:23;;;;;;;4.40;2.33;;;9.70;99.90;;;;;;5030459;28;20044;-77
2022/09/17 01:55:52;;;;;;;2.90;2.10;;;9.70;99.90;;;;;;5030324;28;20549;-77
2022/09/17 01:58:25;;;;;;;5.97;2.43;;;9.70;99.90;;;;;;5029954;28;20025;-77
2022/09/17 02:00:57;;;;;;;3.70;2.30;;;9.70;99.90;;;;;;5029034;28;20108;-76
2022/09/17 02:03:35;;;;;;;5.00;2.30;;;9.70;99.90;;;;;;5030154;28;20075;-77
2022/09/17 02:06:08;;;;;;;3.70;2.10;;;9.70;99.90;;;;;;5029139;28;20031;-77
2022/09/17 02:08:38;;;;;;;2.77;2.10;;;9.70;99.90;;;;;;5030291;28;20037;-77
2022/09/17 02:11:08;;;;;;;4.67;2.10;;;9.70;99.90;;;;;;5030106;28;20065;-77
2022/09/17 02:13:48;;;;;;;2.83;2.30;;;9.70;99.90;;;;;;5029769;28;20032;-77
2022/09/17 02:16:25;;;;;;;4.73;2.27;;;9.70;99.90;;;;;;5030085;28;20029;-77
2022/09/17 02:19:19;;;;;;;4.27;1.90;;;9.60;99.90;;;;;;5029995;28;20021;-77
2022/09/17 02:22:03;;;;;;;3.30;1.80;;;9.60;99.90;;;;;;5030551;28;20053;-77
2022/09/17 02:24:43;;;;;;;3.67;2.23;;;9.60;99.90;;;;;;5028642;28;20028;-77
2022/09/17 02:27:13;;;;;;;4.03;1.87;;;9.60;99.90;;;;;;5027433;28;20438;-77
2022/09/17 02:29:43;;;;;;;3.57;2.30;;;9.50;99.90;;;;;;5027626;28;20079;-77
2022/09/17 02:32:10;;;;;;;3.67;2.07;;;9.50;99.90;;;;;;5028064;28;20028;-77
2022/09/17 02:34:35;;;;;;;3.63;2.10;;;9.50;99.90;;;;;;5027895;28;20175;-77
2022/09/17 02:37:02;;;;;;;4.03;2.10;;;9.50;99.90;;;;;;5027714;28;20541;-76
2022/09/17 02:39:27;;;;;;;3.53;2.20;;;9.40;99.90;;;;;;5027878;28;20379;-76
2022/09/17 02:42:11;;;;;;;3.83;2.33;;;9.40;99.90;;;;;;5027552;28;20055;-76
2022/09/17 02:44:41;;;;;;;5.37;2.07;;;9.40;99.90;;;;;;5027681;28;20049;-77
2022/09/17 02:47:32;;;;;;;3.73;2.00;;;9.40;99.90;;;;;;5027719;28;20022;-77
2022/09/17 02:50:13;;;;;;;2.83;2.23;;;9.40;99.90;;;;;;5027481;28;20130;-77
2022/09/17 02:53:04;;;;;;;2.30;1.80;;;9.40;99.90;;;;;;5027665;28;20037;-77
2022/09/17 02:55:48;;;;;;;2.57;1.60;;;9.40;99.90;;;;;;5027192;28;20037;-77
2022/09/17 02:58:20;;;;;;;3.47;1.90;;;9.40;99.90;;;;;;5027838;28;20514;-77
2022/09/17 03:00:46;;;;;;;3.80;2.00;;;9.40;99.90;;;;;;5027896;28;20036;-77
2022/09/17 03:03:34;;;;;;;2.43;1.83;;;9.40;99.90;;;;;;5027335;28;20025;-77
2022/09/17 03:06:00;;;;;;;2.93;1.80;;;9.40;99.90;;;;;;5027390;28;20034;-77
2022/09/17 03:08:33;;;;;;;3.07;2.00;;;9.40;99.90;;;;;;5027330;28;20670;-77
2022/09/17 03:10:59;;;;;;;5.93;1.83;;;9.40;99.90;;;;;;5027715;28;20521;-77
2022/09/17 03:13:24;;;;;;;2.63;1.90;;;9.40;99.90;;;;;;5027560;28;20041;-77
2022/09/17 03:15:50;;;;;;;4.37;1.83;;;9.40;99.90;;;;;;5027476;28;20032;-77
2022/09/17 03:18:16;;;;;;;3.70;1.83;;;9.40;99.90;;;;;;5027763;28;20025;-76
2022/09/17 03:20:41;;;;;;;2.17;1.80;;;9.40;99.90;;;;;;5027395;28;20199;-77
2022/09/17 03:23:07;;;;;;;4.23;1.97;;;9.40;99.90;;;;;;5027801;28;20077;-76
2022/09/17 03:25:33;;;;;;;2.73;1.73;;;9.30;99.90;;;;;;5027401;28;20033;-77
2022/09/17 03:27:59;;;;;;;2.60;2.00;;;9.30;99.90;;;;;;5027577;28;20526;-76
2022/09/17 03:30:24;;;;;;;4.10;1.80;;;9.30;99.90;;;;;;5027480;28;20029;-82
2022/09/17 03:32:50;;;;;;;4.90;1.70;;;9.30;99.90;;;;;;5026785;28;20108;-82
2022/09/17 03:35:15;;;;;;;6.43;2.23;;;9.30;99.90;;;;;;5026631;28;20521;-81
2022/09/17 03:37:41;;;;;;;3.00;1.90;;;9.30;99.90;;;;;;5026744;28;20026;-82
2022/09/17 03:40:08;;;;;;;3.23;2.00;;;9.30;99.90;;;;;;5028830;28;20375;-82
2022/09/17 03:42:33;;;;;;;2.20;1.80;;;9.20;99.90;;;;;;5029616;28;20025;-82
2022/09/17 03:44:59;;;;;;;5.73;1.90;;;9.20;99.90;;;;;;5030341;28;20063;-81
2022/09/17 03:47:24;;;;;;;6.30;2.03;;;9.20;99.90;;;;;;5029740;28;20044;-82
2022/09/17 03:49:51;;;;;;;4.07;2.10;;;9.20;99.90;;;;;;5029707;28;20033;-82
2022/09/17 03:52:16;;;;;;;3.43;1.87;;;9.10;99.90;;;;;;5030405;28;20132;-81
2022/09/17 03:54:42;;;;;;;3.97;2.13;;;9.00;99.90;;;;;;5032503;28;20525;-77
2022/09/17 03:57:07;;;;;;;3.90;2.10;;;9.00;99.90;;;;;;5035589;28;20049;-77
2022/09/17 03:59:33;;;;;;;7.77;2.33;;;8.90;99.90;;;;;;5034873;28;20037;-77
2022/09/17 04:01:58;;;;;;;6.40;2.10;;;8.90;99.90;;;;;;5032617;28;20029;-77
2022/09/17 04:04:24;;;;;;;4.10;2.50;;;8.80;99.90;;;;;;5033459;28;20030;-77
2022/09/17 04:06:50;;;;;;;4.47;2.70;;;8.80;99.90;;;;;;5033128;28;20029;-77
2022/09/17 04:09:15;;;;;;;5.43;2.83;;;8.70;99.90;;;;;;5032343;28;20060;-77
2022/09/17 04:11:41;;;;;;;4.50;2.60;;;8.70;99.90;;;;;;5031618;28;20545;-77
2022/09/17 04:14:06;;;;;;;7.50;3.03;;;8.70;99.90;;;;;;5031507;28;20029;-76
2022/09/17 04:16:32;;;;;;;3.83;2.13;;;8.70;99.90;;;;;;5032400;28;20041;-77
2022/09/17 04:18:57;;;;;;;6.83;2.70;;;8.60;99.90;;;;;;5032167;28;20029;-77
2022/09/17 04:21:23;;;;;;;4.63;2.67;;;8.70;99.90;;;;;;5032195;28;20038;-77
2022/09/17 04:23:48;;;;;;;2.93;2.63;;;8.70;99.90;;;;;;5032321;28;20029;-77
2022/09/17 04:26:14;;;;;;;5.20;2.80;;;8.70;99.90;;;;;;5032004;28;20032;-77
2022/09/17 04:28:39;;;;;;;4.00;2.30;;;8.70;99.90;;;;;;5031955;28;20029;-76
2022/09/17 04:31:05;;;;;;;6.23;2.57;;;8.70;99.90;;;;;;5032413;28;20101;-77
2022/09/17 04:33:31;;;;;;;5.23;2.50;;;8.70;99.90;;;;;;5032299;28;20026;-77
2022/09/17 04:35:56;;;;;;;4.10;2.50;;;8.70;99.90;;;;;;5031682;28;20502;-77
2022/09/17 04:38:22;;;;;;;5.33;2.60;;;8.70;99.90;;;;;;5030185;28;20056;-76
2022/09/17 04:40:47;;;;;;;8.10;2.67;;;8.70;99.90;;;;;;5030359;28;20029;-76
2022/09/17 04:43:13;;;;;;;7.03;2.73;;;8.70;99.90;;;;;;5030420;28;20026;-76
2022/09/17 04:45:38;;;;;;;6.33;2.27;;;8.70;99.90;;;;;;5030350;28;20029;-76
2022/09/17 04:48:04;;;;;;;4.47;2.60;;;8.70;99.90;;;;;;5030032;28;20034;-77
2022/09/17 04:50:30;;;;;;;4.23;2.40;;;8.70;99.90;;;;;;5029675;28;20948;-76
2022/09/17 04:52:56;;;;;;;3.73;2.10;;;8.70;99.90;;;;;;5029427;28;20141;-76
2022/09/17 04:55:22;;;;;;;3.80;2.40;;;8.70;99.90;;;;;;5029359;28;20429;-77
2022/09/17 04:57:49;;;;;;;3.80;2.20;;;8.70;99.90;;;;;;5029553;28;20029;-77
2022/09/17 05:00:16;;;;;;;4.67;2.20;;;8.80;99.90;;;;;;5029594;28;20489;-77
2022/09/17 05:02:44;;;;;;;3.57;1.67;;;8.70;99.90;;;;;;5029579;28;20056;-76
2022/09/17 05:05:10;;;;;;;5.13;2.00;;;8.80;99.90;;;;;;5029344;28;20437;-76
2022/09/17 05:07:39;;;;;;;4.33;2.03;;;8.80;99.90;;;;;;5029419;28;20045;-77
2022/09/17 05:10:06;;;;;;;7.13;2.13;;;8.70;99.90;;;;;;5029372;28;20026;-76
2022/09/17 05:12:31;;;;;;;2.93;1.70;;;8.70;99.90;;;;;;5028945;28;20072;-76
2022/09/17 05:14:57;;;;;;;3.93;2.00;;;8.80;99.90;;;;;;5029127;28;20486;-76
2022/09/17 05:17:23;;;;;;;9.73;2.70;;;8.80;99.90;;;;;;5028811;28;20029;-77
2022/09/17 05:19:48;;;;;;;4.00;2.03;;;8.80;99.90;;;;;;5029408;28;20501;-77
2022/09/17 05:22:14;;;;;;;4.60;1.93;;;8.80;99.90;;;;;;5029035;28;20026;-76
2022/09/17 05:24:39;;;;;;;5.20;2.17;;;8.80;99.90;;;;;;5028730;28;20048;-77
2022/09/17 05:27:05;;;;;;;4.13;1.93;;;8.90;99.90;;;;;;5028946;28;20037;-77
2022/09/17 05:29:31;;;;;;;3.83;1.97;;;8.90;99.90;;;;;;5028959;28;20427;-76
2022/09/17 05:31:57;;;;;;;7.03;2.30;;;9.00;99.90;;;;;;5028999;28;20060;-77
2022/09/17 05:34:22;;;;;;;4.90;1.87;;;9.00;99.90;;;;;;5028955;28;20025;-76
2022/09/17 05:36:48;;;;;;;4.07;2.00;;;9.00;99.90;;;;;;5028600;28;20382;-76
2022/09/17 05:39:14;;;;;;;4.37;1.90;;;9.00;99.90;;;;;;5028574;28;20122;-76
2022/09/17 05:41:39;;;;;;;4.83;2.07;;;9.00;99.90;;;;;;5028922;28;20029;-76
2022/09/17 05:44:05;;;;;;;5.30;1.73;;;9.00;99.90;;;;;;5028376;28;20026;-76
2022/09/17 05:46:31;;;;;;;5.87;2.53;;;9.10;99.90;;;;;;5029472;28;20052;-76
2022/09/17 05:48:56;;;;;;;6.33;2.33;;;9.10;99.90;;;;;;5029407;28;20039;-76
2022/09/17 05:51:23;;;;;;;6.60;2.10;;;9.10;99.90;;;;;;5028497;28;20079;-76
2022/09/17 05:53:48;;;;;;;6.10;1.90;;;9.10;99.90;;;;;;5028915;28;20569;-77
2022/09/17 05:56:14;;;;;;;6.73;1.97;;;9.10;99.90;;;;;;5027919;28;20128;-76
2022/09/17 05:58:40;;;;;;;4.10;2.00;;;9.00;99.90;;;;;;5028717;28;20040;-76
2022/09/17 06:01:06;;;;;;;7.97;2.00;;;9.10;99.90;;;;;;5028962;28;20033;-77
2022/09/17 06:03:31;;;;;;;7.87;2.30;;;9.10;99.90;;;;;;5028314;28;20026;-77
2022/09/17 06:05:58;;;;;;;7.20;1.90;;;9.10;99.90;;;;;;5028145;28;20442;-76
2022/09/17 06:08:26;;;;;;;11.10;2.00;;;9.10;99.90;;;;;;5027944;28;20034;-77
2022/09/17 06:10:52;;;;;;;5.77;1.90;;;9.10;99.90;;;;;;5027700;28;20519;-81
2022/09/17 06:13:19;;;;;;;4.60;1.87;;;9.10;99.90;;;;;;5027622;28;20025;-82
2022/09/17 06:15:52;;;;;;;4.30;2.10;;;9.10;99.90;;;;;;5026636;28;20140;-81
2022/09/17 06:18:18;;;;;;;7.23;1.90;;;9.20;99.90;;;;;;5026796;28;20477;-81
2022/09/17 06:21:02;;;;;;;4.83;1.97;;;9.10;99.90;;;;;;5026270;28;20026;-81
2022/09/17 06:23:36;;;;;;;6.07;1.77;;;9.10;99.90;;;;;;5027094;28;20029;-81
2022/09/17 06:26:03;;;;;;;7.90;2.20;;;9.10;99.90;;;;;;5027112;28;20500;-81
2022/09/17 06:28:28;;;;;;;6.97;1.80;;;9.10;99.90;;;;;;5027526;28;20442;-81
2022/09/17 06:30:59;;;;;;;6.93;2.00;;;9.10;99.90;;;;;;5026953;28;20057;-81
2022/09/17 06:33:25;;;;;;;7.70;1.97;;;9.10;99.90;;;;;;5027617;28;20037;-81
2022/09/17 06:35:59;;;;;;;7.00;1.90;;;9.10;99.90;;;;;;5026818;28;20488;-81
2022/09/17 06:38:29;;;;;;;6.00;2.07;;;9.20;99.90;;;;;;5027128;28;20394;-81
2022/09/17 06:40:55;;;;;;;4.70;1.70;;;9.20;99.90;;;;;;5027482;28;20025;-81
2022/09/17 06:43:22;;;;;;;5.07;2.10;;;9.20;99.90;;;;;;5027321;28;20072;-81
2022/09/17 06:45:55;;;;;;;5.63;1.83;;;9.20;99.90;;;;;;5026766;28;20027;-81
2022/09/17 06:48:22;;;;;;;5.97;1.93;;;9.20;99.90;;;;;;5027050;28;20056;-81
2022/09/17 06:50:48;;;;;;;6.43;2.10;;;9.20;99.90;;;;;;5027030;28;20049;-81
2022/09/17 06:53:14;;;;;;;5.97;2.00;;;9.20;99.90;;;;;;5027142;28;20105;-81
2022/09/17 06:55:40;;;;;;;6.17;1.97;;;9.30;99.90;;;;;;5027776;28;20118;-81
2022/09/17 06:58:05;;;;;;;8.90;2.00;;;9.30;99.90;;;;;;5026726;28;20029;-81
2022/09/17 07:00:31;;;;;;;5.97;2.00;;;9.30;99.90;;;;;;5027245;28;20390;-81
2022/09/17 07:02:57;;;;;;;5.33;1.90;;;9.30;99.90;;;;;;5027316;28;20026;-81
2022/09/17 07:05:24;;;;;;;7.80;1.73;;;9.40;99.90;;;;;;5030463;28;20088;-81
2022/09/17 07:07:50;;;;;;;8.00;2.33;;;9.50;99.90;;;;;;5031033;28;20025;-82
2022/09/17 07:10:15;;;;;;;6.87;1.80;;;9.60;99.90;;;;;;5031341;28;20028;-81
2022/09/17 07:12:43;;;;;;;5.97;1.80;;;9.60;99.90;;;;;;5030944;28;20133;-80
2022/09/17 07:15:10;;;;;;;8.23;2.03;;;9.80;99.90;;;;;;5032743;28;20129;-81
2022/09/17 07:17:39;;;;;;;5.90;2.40;;;9.80;99.90;;;;;;5034318;28;20464;-81
2022/09/17 07:20:06;;;;;;;6.03;2.37;;;9.80;99.90;;;;;;5033245;28;20033;-81
2022/09/17 07:22:31;;;;;;;8.83;1.90;;;10.00;99.90;;;;;;5032280;28;20080;-81
2022/09/17 07:24:57;;;;;;;9.70;1.60;;;10.00;99.90;;;;;;5032218;28;20025;-82
2022/09/17 07:27:22;;;;;;;8.07;1.93;;;10.10;99.90;;;;;;5031582;28;20367;-81
2022/09/17 07:29:48;;;;;;;8.93;1.60;;;10.10;99.90;;;;;;5031095;28;20029;-81
2022/09/17 07:32:13;;;;;;;6.93;1.57;;;10.10;99.90;;;;;;5032573;28;20037;-82
2022/09/17 07:34:39;;;;;;;5.17;1.60;;;10.20;99.90;;;;;;5032455;28;20466;-82
2022/09/17 07:37:04;;;;;;;6.67;2.00;;;10.30;99.90;;;;;;5031987;28;20083;-81
2022/09/17 07:39:30;;;;;;;9.23;1.50;;;10.40;99.90;;;;;;5031949;28;20476;-81
2022/09/17 07:41:56;;;;;;;5.67;1.50;;;10.40;99.90;;;;;;5031610;28;20040;-81
2022/09/17 07:44:21;;;;;;;9.60;1.60;;;10.50;99.90;;;;;;5031992;28;20043;-81
2022/09/17 07:46:47;;;;;;;4.97;1.53;;;10.60;99.90;;;;;;5032182;28;20528;-81
2022/09/17 07:49:12;;;;;;;7.37;1.60;;;10.70;99.90;;;;;;5031867;28;20049;-80
2022/09/17 07:51:38;;;;;;;7.37;1.47;;;10.70;99.90;;;;;;5031175;28;20037;-81
2022/09/17 07:54:05;;;;;;;5.60;1.73;;;10.70;99.90;;;;;;5030106;28;20039;-81
2022/09/17 07:56:30;;;;;;;6.10;1.73;;;10.80;99.90;;;;;;5029596;28;20049;-81
2022/09/17 07:58:56;;;;;;;8.07;1.80;;;10.80;99.90;;;;;;5030206;28;20037;-81
2022/09/17 08:01:21;;;;;;;7.27;1.60;;;10.80;99.90;;;;;;5029977;28;20026;-81
2022/09/17 08:03:50;;;;;;;10.53;1.60;;;10.70;99.90;;;;;;5029915;28;20449;-81
2022/09/17 08:06:18;;;;;;;12.77;2.00;;;10.70;99.90;;;;;;5029564;28;20413;-81
2022/09/17 08:08:44;;;;;;;10.67;2.23;;;10.70;99.90;;;;;;5029629;28;20040;-81
2022/09/17 08:11:16;;;;;;;5.53;1.63;;;10.80;99.90;;;;;;5029646;28;20045;-81
2022/09/17 08:13:42;;;;;;;6.67;1.63;;;10.80;99.90;;;;;;5029444;28;20445;-81
2022/09/17 08:16:14;;;;;;;6.22;1.60;;;11.00;99.90;;;;;;5029437;28;20029;-81
2022/09/17 08:18:40;;;;;;;8.55;1.80;;;11.10;99.90;;;;;;5030401;28;20382;-81
2022/09/17 08:21:08;;;;;;;8.25;1.90;;;11.20;99.90;;;;;;5029587;28;20026;-81
2022/09/17 08:23:35;;;;;;;6.97;1.42;;;11.30;99.90;;;;;;5029434;28;20507;-81
2022/09/17 08:26:02;;;;;;;5.37;1.50;;;11.30;99.90;;;;;;5028092;28;20040;-81
2022/09/17 08:28:29;;;;;;;7.90;2.53;;;11.20;99.90;;;;;;5029072;28;20124;-81
2022/09/17 08:31:00;;;;;;;5.50;1.50;;;11.20;99.90;;;;;;5028799;28;20045;-81
2022/09/17 08:33:29;;;;;;;5.30;1.60;;;11.30;99.90;;;;;;5029420;28;20073;-81
2022/09/17 08:35:58;;;;;;;7.00;1.60;;;11.40;99.90;;;;;;5029089;28;20087;-81
2022/09/17 08:38:28;;;;;;;11.52;2.00;;;11.50;99.90;;;;;;5029057;28;20075;-81
2022/09/17 08:41:01;;;;;;;6.88;1.67;;;11.50;99.90;;;;;;5029035;28;20029;-82
2022/09/17 08:43:29;;;;;;;7.38;1.58;;;11.50;99.90;;;;;;5029088;28;20033;-82
2022/09/17 08:45:57;;;;;;;7.35;1.70;;;11.50;99.90;;;;;;5028967;28;20435;-82
2022/09/17 08:48:27;;;;;;;7.55;2.03;;;11.50;99.90;;;;;;5029347;28;20029;-81
2022/09/17 08:50:52;;;;;;;7.28;1.67;;;11.50;99.90;;;;;;5028906;28;20444;-82
2022/09/17 08:53:57;;;;;;;11.85;2.20;;;11.50;99.90;;;;;;5028591;28;20043;-81
2022/09/17 08:56:25;;;;;;;8.57;1.80;;;11.40;99.90;;;;;;5028095;28;20112;-81
2022/09/17 08:59:03;;;;;;;8.52;2.63;;;11.30;99.90;;;;;;5028969;28;20528;-82
2022/09/17 09:02:02;;;;;;;10.43;1.70;;;11.20;99.90;;;;;;5028747;28;20067;-82
2022/09/17 09:04:49;;;;;;;8.05;1.63;;;11.10;99.90;;;;;;5028269;28;20100;-82
2022/09/17 09:07:25;;;;;;;5.75;1.60;;;11.30;99.90;;;;;;5028363;28;20094;-81
2022/09/17 09:10:10;;;;;;;7.28;1.42;;;11.40;99.90;;;;;;5028761;28;20029;-81
2022/09/17 09:12:37;;;;;;;11.00;2.77;;;11.50;99.90;;;;;;5028699;28;20029;-81
2022/09/17 09:15:17;;;;;;;6.28;1.48;;;11.50;99.90;;;;;;5028252;28;20073;-82
2022/09/17 09:17:46;;;;;;;8.63;2.30;;;11.40;99.90;;;;;;5028252;28;20079;-82
2022/09/17 09:20:17;;;;;;;13.73;2.08;;;11.40;99.90;;;;;;5028279;28;20036;-79
2022/09/17 09:22:49;;;;;;;7.70;1.75;;;11.30;99.90;;;;;;5028103;28;20092;-79
2022/09/17 09:25:35;;;;;;;8.35;1.90;;;11.20;99.90;;;;;;5028740;28;20032;-79
2022/09/17 09:28:13;;;;;;;12.27;2.55;;;11.10;99.90;;;;;;5028012;28;20091;-79
2022/09/17 09:31:16;;;;;;;8.60;1.75;;;11.10;99.90;;;;;;5027974;28;20537;-79
2022/09/17 09:33:42;;;;;;;5.53;1.60;;;11.10;99.90;;;;;;5028391;28;20101;-79
2022/09/17 09:36:14;;;;;;;6.38;1.40;;;11.10;99.90;;;;;;5027834;28;20065;-79
2022/09/17 09:38:53;;;;;;;4.97;1.83;;;11.30;99.90;;;;;;5027588;28;20029;-79
2022/09/17 09:41:30;;;;;;;7.85;2.03;;;11.30;99.90;;;;;;5027937;28;20036;-79
2022/09/17 09:44:07;;;;;;;7.72;1.60;;;11.40;99.90;;;;;;5028201;28;20026;-79
2022/09/17 09:47:04;;;;;;;5.65;1.50;;;11.30;99.90;;;;;;5028331;28;20022;-80
2022/09/17 09:49:42;;;;;;;6.97;1.67;;;11.40;99.90;;;;;;5027967;28;20072;-79
2022/09/17 09:52:25;;;;;;;6.43;1.52;;;11.40;99.90;;;;;;5028168;28;20485;-78
2022/09/17 09:55:00;;;;;;;7.50;1.58;;;11.40;99.90;;;;;;5027717;28;20033;-79
2022/09/17 09:57:44;;;;;;;5.13;1.83;;;11.30;99.90;;;;;;5028478;28;20050;-79
2022/09/17 10:00:24;;;;;;;9.05;1.98;;;11.10;99.90;;;;;;5026852;28;20103;-79
2022/09/17 10:02:54;;;;;;;6.65;1.85;;;10.90;99.90;;;;;;5027798;28;20022;-80
2022/09/17 10:05:19;;;;;;;9.32;2.40;;;10.70;99.90;;;;;;5029364;28;20552;-79
2022/09/17 10:07:45;;;;;;;13.05;2.38;;;10.60;99.90;;;;;;5028347;28;20029;-80
2022/09/17 10:10:11;;;;;;;5.60;1.80;;;10.50;99.90;;;;;;5028213;28;20033;-79
2022/09/17 10:12:37;;;;;;;6.97;1.70;;;10.40;99.90;;;;;;5028427;28;20037;-79
2022/09/17 10:15:26;;;;;;;9.60;2.00;;;10.20;99.90;;;;;;5027773;28;20108;-79
2022/09/17 10:18:19;;;;;;;9.17;1.90;;;10.20;99.90;;;;;;5027895;28;20105;-79
2022/09/17 10:20:54;;;;;;;9.53;2.10;;;10.20;99.90;;;;;;5030276;28;20113;-75
2022/09/17 10:23:21;;;;;;;10.47;2.30;;;10.10;99.90;;;;;;5031434;28;20048;-76
2022/09/17 10:25:47;;;;;;;5.93;1.90;;;10.10;99.90;;;;;;5030332;28;20033;-75
2022/09/17 10:28:44;;;;;;;5.10;1.93;;;10.00;99.90;;;;;;5029758;28;20056;-76
2022/09/17 10:31:10;;;;;;;5.43;2.00;;;10.00;99.90;;;;;;5028634;28;20026;-76
2022/09/17 10:33:50;;;;;;;5.17;1.70;;;10.00;99.90;;;;;;5028930;28;20069;-76
2022/09/17 10:36:15;;;;;;;5.03;2.23;;;10.00;99.90;;;;;;5028140;28;20159;-76
2022/09/17 10:38:45;;;;;;;7.13;1.80;;;10.00;99.90;;;;;;5028688;28;20100;-76
2022/09/17 10:41:20;;;;;;;7.10;1.83;;;10.00;99.90;;;;;;5028168;28;20382;-76
2022/09/17 10:43:47;;;;;;;9.17;2.00;;;10.00;99.90;;;;;;5029549;28;20561;-76
2022/09/17 10:46:19;;;;;;;6.93;1.97;;;10.10;99.90;;;;;;5029416;28;20030;-76
2022/09/17 10:49:05;;;;;;;8.70;2.43;;;10.10;99.90;;;;;;5029561;28;20071;-76
2022/09/17 10:51:31;;;;;;;9.50;2.03;;;10.30;99.90;;;;;;5032633;28;20041;-76
2022/09/17 10:54:04;;;;;;;8.03;2.23;;;10.30;99.90;;;;;;5033716;28;20031;-76
2022/09/17 10:56:35;;;;;;;4.07;1.40;;;10.40;99.90;;;;;;5032735;28;20547;-76
2022/09/17 10:59:46;;;;;;;5.53;1.60;;;10.50;99.90;;;;;;5033318;28;20026;-76
2022/09/17 11:02:38;;;;;;;6.80;1.93;;;10.50;99.90;;;;;;5032162;28;20029;-76
2022/09/17 11:05:24;;;;;;;4.75;1.65;;;10.60;99.90;;;;;;5030954;28;20356;-76
2022/09/17 11:08:01;;;;;;;5.32;1.40;;;10.70;99.90;;;;;;5031021;28;20063;-76
2022/09/17 11:10:35;;;;;;;5.72;1.45;;;10.70;99.90;;;;;;5031687;28;20090;-76
2022/09/17 11:13:06;;;;;;;6.65;1.70;;;10.70;99.90;;;;;;5030872;28;20099;-76
2022/09/17 11:15:52;;;;;;;7.88;2.05;;;10.60;99.90;;;;;;5030901;28;20057;-76
2022/09/17 11:18:31;;;;;;;10.20;2.63;;;10.60;99.90;;;;;;5031389;28;20057;-76
2022/09/17 11:21:22;;;;;;;4.33;1.63;;;10.60;99.90;;;;;;5031215;28;20053;-76
2022/09/17 11:24:16;;;;;;;4.45;1.65;;;10.60;99.90;;;;;;5030815;28;20108;-76
2022/09/17 11:26:52;;;;;;;6.60;1.98;;;10.60;99.90;;;;;;5031190;28;20525;-76
2022/09/17 11:29:55;;;;;;;4.40;1.60;;;10.50;99.90;;;;;;5031092;28;20048;-76
2022/09/17 11:32:44;;;;;;;6.53;1.67;;;10.40;99.90;;;;;;5030760;28;20061;-76
2022/09/17 11:35:19;;;;;;;7.78;1.88;;;10.70;99.90;;;;;;5030457;28;20041;-76
2022/09/17 11:37:57;;;;;;;4.63;2.03;;;11.00;99.90;;;;;;5030523;28;20038;-76
2022/09/17 11:40:27;;;;;;;4.32;1.50;;;11.00;99.90;;;;;;5030400;28;20034;-76
2022/09/17 11:42:57;;;;;;;3.00;1.30;;;11.20;99.90;;;;;;5030139;28;20041;-76
2022/09/17 11:45:36;;;;;;;5.70;1.40;;;11.30;99.90;;;;;;5030320;28;20133;-76
2022/09/17 11:48:21;;;;;;;3.75;1.30;;;11.50;99.90;;;;;;5030138;28;20057;-76
2022/09/17 11:50:56;;;;;;;5.20;1.50;;;11.70;99.90;;;;;;5030539;28;20036;-76
2022/09/17 11:53:45;;;;;;;3.75;1.50;;;11.90;99.90;;;;;;5029932;28;20107;-76
2022/09/17 11:56:40;;;;;;;3.92;1.40;;;12.30;99.90;;;;;;5029747;28;20847;-76
2022/09/17 11:59:13;;;;;;;;;;;12.40;99.90;;;;;;5030034;28;20037;-76
2022/09/17 12:01:59;;;;;;;3.67;1.40;;;12.50;99.90;;;;;;5029765;28;19909;-76
2022/09/17 12:04:35;;;;;;;;;;;12.40;99.90;;;;;;5029998;28;20164;-76
2022/09/17 12:07:12;;;;;;;2.70;1.00;;;12.50;99.90;;;;;;5029697;28;19911;-76
2022/09/17 12:09:43;;;;;;;2.60;1.30;;;12.40;99.90;;;;;;5029759;28;20029;-76
2022/09/17 12:12:21;;;;;;;3.75;1.30;;;12.20;99.90;;;;;;5028911;28;20033;-82
2022/09/17 12:14:49;;;;;;;4.82;1.27;;;12.00;99.90;;;;;;5029442;28;20029;-82
2022/09/17 12:17:21;;;;;;;6.80;1.40;;;11.70;99.90;;;;;;5029601;28;20091;-82
2022/09/17 12:19:56;;;;;;;2.97;1.20;;;11.40;99.90;;;;;;5028949;28;20022;-82
2022/09/17 12:22:26;;;;;;;3.65;1.30;;;11.20;99.90;;;;;;5030056;28;20029;-82
2022/09/17 12:24:53;;;;;;;4.03;1.60;;;11.10;99.90;;;;;;5028957;28;20070;-82
2022/09/17 12:27:37;;;;;;;3.83;1.30;;;11.00;99.90;;;;;;5029669;28;20461;-82
2022/09/17 12:30:02;;;;;;;4.57;1.58;;;11.10;99.90;;;;;;5030070;28;20438;-77
2022/09/17 12:32:46;;;;;;;3.80;1.55;;;11.20;99.90;;;;;;5030024;28;20041;-77
2022/09/17 12:35:46;;;;;;;6.28;1.83;;;11.20;99.90;;;;;;5030120;28;20041;-77
2022/09/17 12:38:29;;;;;;;5.95;1.60;;;11.30;99.90;;;;;;5029954;28;20044;-77
2022/09/17 12:41:19;;;;;;;5.95;1.70;;;11.50;99.90;;;;;;5030413;28;20115;-77
2022/09/17 12:44:03;;;;;;;6.65;1.50;;;11.80;99.90;;;;;;5029989;28;20033;-77
2022/09/17 12:46:52;;;;;;;4.03;1.35;;;12.30;99.90;;;;;;5030379;28;20087;-77
2022/09/17 12:49:56;;;;;;;4.00;1.60;;;13.00;99.90;;;;;;5030226;28;20811;-77
2022/09/17 12:52:56;;;;;;;7.55;1.70;;;13.20;99.90;;;;;;5029615;28;20025;-77
2022/09/17 12:55:56;;;;;;;4.57;1.65;;;12.90;99.90;;;;;;5029304;28;20025;-77
2022/09/17 12:59:05;;;;;;;7.28;2.13;;;12.40;99.90;;;;;;5028834;28;20033;-78
2022/09/17 13:01:47;;;;;;;7.13;1.90;;;12.00;99.90;;;;;;5028473;28;20033;-78
2022/09/17 13:04:15;;;;;;;5.30;1.63;;;11.70;99.90;;;;;;5028576;28;20036;-83
2022/09/17 13:06:56;;;;;;;3.67;1.88;;;11.40;99.90;;;;;;5028595;28;20026;-83
2022/09/17 13:09:49;;;;;;;4.97;1.70;;;11.20;99.90;;;;;;5028323;28;20055;-83
2022/09/17 13:12:31;;;;;;;5.00;1.73;;;11.10;99.90;;;;;;5028415;28;20036;-83
2022/09/17 13:15:11;;;;;;;6.07;1.98;;;11.00;99.90;;;;;;5028353;28;20033;-82
2022/09/17 13:17:57;;;;;;;4.07;1.90;;;10.90;99.90;;;;;;5027582;28;20474;-83
2022/09/17 13:20:30;;;;;;;4.90;2.10;;;10.80;99.90;;;;;;5028527;28;20030;-82